sensor_id;sensor_type;location;lat;lon;timestamp;pressure;altitude;pressure_sealevel;temperature;humidity
45731;BME280;31440;48.584;13.460;2023-06-22T00:00:13;97085.69;;;19.22;100.00
45731;BME280;31440;48.584;13.460;2023-06-22T00:03:18;97090.66;;;18.99;100.00
45731;BME280;31440;48.584;13.460;2023-06-22T00:06:23;97090.59;;;19.14;100.00
45731;BME280;31440;48.584;13.460;2023-06-22T00:09:28;97089.00;;;19.11;100.00
45731;BME280;31440;48.584;13.460;2023-06-22T00:12:32;97077.56;;;19.39;100.00
45731;BME280;31440;48.584;13.460;2023-06-22T00:15:37;97075.47;;;19.17;100.00
45731;BME280;31440;48.584;13.460;2023-06-22T00:18:42;97077.28;;;19.56;100.00
45731;BME280;31440;48.584;13.460;2023-06-22T00:21:51;97077.22;;;19.04;100.00
45731;BME280;31440;48.584;13.460;2023-06-22T00:24:59;97076.84;;;18.96;100.00
45731;BME280;31440;48.584;13.460;2023-06-22T00:28:03;97076.03;;;19.08;100.00
45731;BME280;31440;48.584;13.460;2023-06-22T00:31:08;97079.16;;;19.27;100.00
45731;BME280;31440;48.584;13.460;2023-06-22T00:34:13;97075.09;;;19.09;100.00
45731;BME280;31440;48.584;13.460;2023-06-22T00:37:18;97080.47;;;19.34;100.00
45731;BME280;31440;48.584;13.460;2023-06-22T00:40:22;97078.81;;;19.46;100.00
45731;BME280;31440;48.584;13.460;2023-06-22T00:43:27;97074.84;;;19.53;100.00
45731;BME280;31440;48.584;13.460;2023-06-22T00:46:32;97081.50;;;19.32;100.00
45731;BME280;31440;48.584;13.460;2023-06-22T00:49:37;97064.06;;;19.04;100.00
45731;BME280;31440;48.584;13.460;2023-06-22T00:52:43;97062.16;;;19.06;100.00
45731;BME280;31440;48.584;13.460;2023-06-22T00:55:48;97055.13;;;18.80;100.00
45731;BME280;31440;48.584;13.460;2023-06-22T00:58:56;97041.97;;;18.80;100.00
45731;BME280;31440;48.584;13.460;2023-06-22T01:02:02;97046.91;;;18.57;100.00
45731;BME280;31440;48.584;13.460;2023-06-22T01:05:07;97041.59;;;18.71;100.00
45731;BME280;31440;48.584;13.460;2023-06-22T01:08:16;97038.72;;;18.62;100.00
45731;BME280;31440;48.584;13.460;2023-06-22T01:14:28;97029.34;;;18.43;100.00
45731;BME280;31440;48.584;13.460;2023-06-22T01:17:35;97017.22;;;18.69;100.00
45731;BME280;31440;48.584;13.460;2023-06-22T01:20:40;97012.19;;;18.52;100.00
45731;BME280;31440;48.584;13.460;2023-06-22T01:23:53;97013.88;;;18.39;100.00
45731;BME280;31440;48.584;13.460;2023-06-22T01:27:14;97009.75;;;18.35;100.00
45731;BME280;31440;48.584;13.460;2023-06-22T01:30:26;96988.53;;;17.97;100.00
45731;BME280;31440;48.584;13.460;2023-06-22T01:33:34;96982.78;;;18.04;100.00
45731;BME280;31440;48.584;13.460;2023-06-22T01:36:39;96986.06;;;18.08;100.00
45731;BME280;31440;48.584;13.460;2023-06-22T01:39:44;96975.00;;;17.89;100.00
45731;BME280;31440;48.584;13.460;2023-06-22T01:42:49;96971.56;;;17.74;100.00
45731;BME280;31440;48.584;13.460;2023-06-22T01:45:54;96966.06;;;17.49;100.00
45731;BME280;31440;48.584;13.460;2023-06-22T01:49:00;96974.59;;;17.52;100.00
45731;BME280;31440;48.584;13.460;2023-06-22T01:52:05;96969.63;;;18.04;100.00
45731;BME280;31440;48.584;13.460;2023-06-22T01:55:10;96958.06;;;18.21;100.00
45731;BME280;31440;48.584;13.460;2023-06-22T01:58:15;96958.09;;;18.07;100.00
45731;BME280;31440;48.584;13.460;2023-06-22T02:01:24;96968.63;;;17.93;100.00
45731;BME280;31440;48.584;13.460;2023-06-22T02:04:43;96964.59;;;17.73;100.00
45731;BME280;31440;48.584;13.460;2023-06-22T02:07:56;96962.50;;;17.50;100.00
45731;BME280;31440;48.584;13.460;2023-06-22T02:11:07;96964.25;;;17.79;100.00
45731;BME280;31440;48.584;13.460;2023-06-22T02:14:13;96966.81;;;18.07;100.00
45731;BME280;31440;48.584;13.460;2023-06-22T02:17:17;96968.19;;;18.27;100.00
45731;BME280;31440;48.584;13.460;2023-06-22T02:20:23;96976.41;;;18.76;100.00
45731;BME280;31440;48.584;13.460;2023-06-22T02:23:28;96971.50;;;18.58;100.00
45731;BME280;31440;48.584;13.460;2023-06-22T02:26:32;96973.47;;;17.99;100.00
45731;BME280;31440;48.584;13.460;2023-06-22T02:29:39;96958.25;;;18.32;100.00
45731;BME280;31440;48.584;13.460;2023-06-22T02:32:43;96956.84;;;18.27;100.00
45731;BME280;31440;48.584;13.460;2023-06-22T02:35:52;96969.81;;;18.01;100.00
45731;BME280;31440;48.584;13.460;2023-06-22T02:38:59;96955.50;;;17.93;100.00
45731;BME280;31440;48.584;13.460;2023-06-22T02:42:07;96962.91;;;17.86;100.00
45731;BME280;31440;48.584;13.460;2023-06-22T02:45:12;96970.75;;;18.00;100.00
45731;BME280;31440;48.584;13.460;2023-06-22T02:48:16;96969.47;;;17.93;100.00
45731;BME280;31440;48.584;13.460;2023-06-22T02:51:21;96970.34;;;17.80;100.00
45731;BME280;31440;48.584;13.460;2023-06-22T02:54:27;96974.06;;;17.90;100.00
45731;BME280;31440;48.584;13.460;2023-06-22T02:57:31;96967.22;;;17.87;100.00
45731;BME280;31440;48.584;13.460;2023-06-22T03:00:36;96968.50;;;17.52;100.00
45731;BME280;31440;48.584;13.460;2023-06-22T03:03:41;96974.50;;;17.54;100.00
45731;BME280;31440;48.584;13.460;2023-06-22T03:06:45;96965.53;;;17.86;100.00
45731;BME280;31440;48.584;13.460;2023-06-22T03:09:55;96973.78;;;17.66;100.00
45731;BME280;31440;48.584;13.460;2023-06-22T03:13:00;96964.53;;;17.75;100.00
45731;BME280;31440;48.584;13.460;2023-06-22T03:16:04;96965.91;;;17.94;100.00
45731;BME280;31440;48.584;13.460;2023-06-22T03:19:09;96973.97;;;17.91;100.00
45731;BME280;31440;48.584;13.460;2023-06-22T03:22:13;96976.53;;;17.79;100.00
45731;BME280;31440;48.584;13.460;2023-06-22T03:25:19;96979.13;;;17.93;100.00
45731;BME280;31440;48.584;13.460;2023-06-22T03:28:25;96981.75;;;17.93;100.00
45731;BME280;31440;48.584;13.460;2023-06-22T03:31:30;96986.94;;;17.94;100.00
45731;BME280;31440;48.584;13.460;2023-06-22T03:34:35;96985.50;;;17.89;100.00
45731;BME280;31440;48.584;13.460;2023-06-22T03:37:42;96984.50;;;17.63;100.00
45731;BME280;31440;48.584;13.460;2023-06-22T03:40:47;96977.16;;;18.11;100.00
45731;BME280;31440;48.584;13.460;2023-06-22T03:43:52;96967.81;;;18.33;100.00
45731;BME280;31440;48.584;13.460;2023-06-22T03:46:56;96960.78;;;18.34;100.00
45731;BME280;31440;48.584;13.460;2023-06-22T03:50:01;96965.53;;;18.41;100.00
45731;BME280;31440;48.584;13.460;2023-06-22T03:53:08;96963.97;;;18.66;100.00
45731;BME280;31440;48.584;13.460;2023-06-22T03:56:12;96958.28;;;18.45;100.00
45731;BME280;31440;48.584;13.460;2023-06-22T03:59:17;96964.03;;;18.52;100.00
45731;BME280;31440;48.584;13.460;2023-06-22T04:02:22;96951.91;;;18.49;100.00
45731;BME280;31440;48.584;13.460;2023-06-22T04:05:26;96951.00;;;18.50;100.00
45731;BME280;31440;48.584;13.460;2023-06-22T04:08:31;96961.28;;;18.53;100.00
45731;BME280;31440;48.584;13.460;2023-06-22T04:11:35;96951.31;;;18.31;100.00
45731;BME280;31440;48.584;13.460;2023-06-22T04:14:40;96947.84;;;18.31;100.00
45731;BME280;31440;48.584;13.460;2023-06-22T04:17:44;96938.53;;;18.25;100.00
45731;BME280;31440;48.584;13.460;2023-06-22T04:20:49;96945.16;;;18.45;100.00
45731;BME280;31440;48.584;13.460;2023-06-22T04:23:54;96938.44;;;18.27;100.00
45731;BME280;31440;48.584;13.460;2023-06-22T04:26:59;96928.50;;;18.59;100.00
45731;BME280;31440;48.584;13.460;2023-06-22T04:30:07;96929.53;;;18.96;100.00
45731;BME280;31440;48.584;13.460;2023-06-22T04:33:13;96940.53;;;18.75;100.00
45731;BME280;31440;48.584;13.460;2023-06-22T04:36:17;96934.06;;;18.94;100.00
45731;BME280;31440;48.584;13.460;2023-06-22T04:39:23;96928.19;;;19.03;100.00
45731;BME280;31440;48.584;13.460;2023-06-22T04:42:28;96928.34;;;18.74;100.00
45731;BME280;31440;48.584;13.460;2023-06-22T04:45:32;96924.63;;;19.29;100.00
45731;BME280;31440;48.584;13.460;2023-06-22T04:48:37;96916.31;;;19.61;100.00
45731;BME280;31440;48.584;13.460;2023-06-22T04:51:42;96913.19;;;19.56;100.00
45731;BME280;31440;48.584;13.460;2023-06-22T04:54:46;96914.69;;;19.96;100.00
45731;BME280;31440;48.584;13.460;2023-06-22T04:57:59;96910.72;;;20.14;100.00
45731;BME280;31440;48.584;13.460;2023-06-22T05:01:09;96910.09;;;20.24;100.00
45731;BME280;31440;48.584;13.460;2023-06-22T05:04:13;96911.84;;;20.36;100.00
45731;BME280;31440;48.584;13.460;2023-06-22T05:07:18;96913.69;;;20.23;100.00
45731;BME280;31440;48.584;13.460;2023-06-22T05:10:22;96907.25;;;20.51;100.00
45731;BME280;31440;48.584;13.460;2023-06-22T05:13:27;96919.69;;;20.72;100.00
45731;BME280;31440;48.584;13.460;2023-06-22T05:16:31;96913.94;;;20.67;100.00
45731;BME280;31440;48.584;13.460;2023-06-22T05:19:36;96917.34;;;20.80;100.00
45731;BME280;31440;48.584;13.460;2023-06-22T05:22:40;96913.00;;;21.03;100.00
45731;BME280;31440;48.584;13.460;2023-06-22T05:25:45;96923.88;;;20.99;100.00
45731;BME280;31440;48.584;13.460;2023-06-22T05:28:50;96923.31;;;21.06;100.00
45731;BME280;31440;48.584;13.460;2023-06-22T05:31:54;96920.72;;;21.40;100.00
45731;BME280;31440;48.584;13.460;2023-06-22T05:34:59;96921.63;;;21.85;100.00
45731;BME280;31440;48.584;13.460;2023-06-22T05:38:04;96915.63;;;21.83;100.00
45731;BME280;31440;48.584;13.460;2023-06-22T05:41:08;96920.19;;;21.81;100.00
45731;BME280;31440;48.584;13.460;2023-06-22T05:44:13;96921.75;;;21.83;100.00
45731;BME280;31440;48.584;13.460;2023-06-22T05:47:18;96921.50;;;21.87;100.00
45731;BME280;31440;48.584;13.460;2023-06-22T05:50:22;96921.00;;;22.15;100.00
45731;BME280;31440;48.584;13.460;2023-06-22T05:53:27;96918.06;;;22.51;100.00
45731;BME280;31440;48.584;13.460;2023-06-22T05:56:31;96919.47;;;22.56;100.00
45731;BME280;31440;48.584;13.460;2023-06-22T05:59:36;96917.00;;;22.75;100.00
45731;BME280;31440;48.584;13.460;2023-06-22T06:02:40;96911.16;;;22.92;100.00
45731;BME280;31440;48.584;13.460;2023-06-22T06:05:48;96912.25;;;22.89;100.00
45731;BME280;31440;48.584;13.460;2023-06-22T06:08:52;96913.34;;;22.87;100.00
45731;BME280;31440;48.584;13.460;2023-06-22T06:11:57;96918.59;;;22.66;100.00
45731;BME280;31440;48.584;13.460;2023-06-22T06:15:02;96912.59;;;23.17;100.00
45731;BME280;31440;48.584;13.460;2023-06-22T06:18:06;96907.16;;;23.18;100.00
45731;BME280;31440;48.584;13.460;2023-06-22T06:21:11;96911.28;;;23.11;100.00
45731;BME280;31440;48.584;13.460;2023-06-22T06:24:16;96909.44;;;23.44;100.00
45731;BME280;31440;48.584;13.460;2023-06-22T06:27:20;96907.59;;;23.96;100.00
45731;BME280;31440;48.584;13.460;2023-06-22T06:30:25;96906.81;;;24.14;100.00
45731;BME280;31440;48.584;13.460;2023-06-22T06:33:29;96911.75;;;24.48;100.00
45731;BME280;31440;48.584;13.460;2023-06-22T06:36:35;96912.06;;;24.54;100.00
45731;BME280;31440;48.584;13.460;2023-06-22T06:39:40;96901.75;;;24.71;100.00
45731;BME280;31440;48.584;13.460;2023-06-22T06:42:48;96897.00;;;24.93;99.75
45731;BME280;31440;48.584;13.460;2023-06-22T06:45:53;96895.84;;;25.44;100.00
45731;BME280;31440;48.584;13.460;2023-06-22T06:48:58;96890.75;;;25.60;98.80
45731;BME280;31440;48.584;13.460;2023-06-22T06:52:02;96888.66;;;25.54;100.00
45731;BME280;31440;48.584;13.460;2023-06-22T06:55:07;96889.13;;;25.40;100.00
45731;BME280;31440;48.584;13.460;2023-06-22T06:58:14;96877.50;;;26.15;100.00
45731;BME280;31440;48.584;13.460;2023-06-22T07:01:19;96876.00;;;26.76;100.00
45731;BME280;31440;48.584;13.460;2023-06-22T07:04:26;96878.91;;;27.08;100.00
45731;BME280;31440;48.584;13.460;2023-06-22T07:07:31;96880.44;;;27.28;95.47
45731;BME280;31440;48.584;13.460;2023-06-22T07:10:36;96869.81;;;27.37;81.38
45731;BME280;31440;48.584;13.460;2023-06-22T07:13:41;96869.94;;;27.87;100.00
45731;BME280;31440;48.584;13.460;2023-06-22T07:16:45;96865.78;;;27.32;76.53
45731;BME280;31440;48.584;13.460;2023-06-22T07:19:50;96869.03;;;28.12;100.00
45731;BME280;31440;48.584;13.460;2023-06-22T07:22:54;96864.88;;;28.10;83.86
45731;BME280;31440;48.584;13.460;2023-06-22T07:25:59;96869.19;;;28.53;90.50
45731;BME280;31440;48.584;13.460;2023-06-22T07:29:06;96874.78;;;28.33;69.25
45731;BME280;31440;48.584;13.460;2023-06-22T07:32:11;96880.25;;;28.24;69.69
45731;BME280;31440;48.584;13.460;2023-06-22T07:35:16;96868.53;;;29.32;76.77
45731;BME280;31440;48.584;13.460;2023-06-22T07:38:22;96854.53;;;28.97;72.16
45731;BME280;31440;48.584;13.460;2023-06-22T07:41:26;96852.47;;;28.43;70.81
45731;BME280;31440;48.584;13.460;2023-06-22T07:44:31;96842.31;;;29.35;100.00
45731;BME280;31440;48.584;13.460;2023-06-22T07:47:35;96842.53;;;30.20;89.70
45731;BME280;31440;48.584;13.460;2023-06-22T07:50:40;96843.47;;;29.33;69.53
45731;BME280;31440;48.584;13.460;2023-06-22T07:53:45;96846.31;;;29.56;66.52
45731;BME280;31440;48.584;13.460;2023-06-22T07:56:49;96844.31;;;30.59;76.29
45731;BME280;31440;48.584;13.460;2023-06-22T07:59:54;96839.00;;;30.82;96.31
45731;BME280;31440;48.584;13.460;2023-06-22T08:02:58;96833.38;;;30.15;71.34
45731;BME280;31440;48.584;13.460;2023-06-22T08:06:03;96823.59;;;30.30;59.49
45731;BME280;31440;48.584;13.460;2023-06-22T08:09:07;96821.78;;;30.76;57.88
45731;BME280;31440;48.584;13.460;2023-06-22T08:12:12;96834.75;;;30.11;66.51
45731;BME280;31440;48.584;13.460;2023-06-22T08:15:17;96843.00;;;30.55;78.92
45731;BME280;31440;48.584;13.460;2023-06-22T08:18:22;96845.41;;;30.50;72.31
45731;BME280;31440;48.584;13.460;2023-06-22T08:21:26;96844.75;;;30.93;63.26
45731;BME280;31440;48.584;13.460;2023-06-22T08:24:30;96834.25;;;31.06;59.58
45731;BME280;31440;48.584;13.460;2023-06-22T08:27:35;96836.69;;;30.48;59.04
45731;BME280;31440;48.584;13.460;2023-06-22T08:30:40;96833.03;;;31.61;79.40
45731;BME280;31440;48.584;13.460;2023-06-22T08:33:45;96830.00;;;32.44;84.53
45731;BME280;31440;48.584;13.460;2023-06-22T08:36:53;96823.63;;;31.80;60.87
45731;BME280;31440;48.584;13.460;2023-06-22T08:40:02;96828.44;;;30.80;51.58
45731;BME280;31440;48.584;13.460;2023-06-22T08:43:09;96823.09;;;32.21;73.25
45731;BME280;31440;48.584;13.460;2023-06-22T08:46:13;96819.91;;;32.89;81.74
45731;BME280;31440;48.584;13.460;2023-06-22T08:49:17;96816.59;;;32.44;47.54
45731;BME280;31440;48.584;13.460;2023-06-22T08:52:23;96820.97;;;33.72;73.14
45731;BME280;31440;48.584;13.460;2023-06-22T08:55:28;96819.16;;;32.95;45.06
45731;BME280;31440;48.584;13.460;2023-06-22T08:58:32;96827.50;;;33.56;54.33
45731;BME280;31440;48.584;13.460;2023-06-22T09:01:37;96826.09;;;33.11;47.29
45731;BME280;31440;48.584;13.460;2023-06-22T09:04:41;96823.94;;;32.57;46.94
45731;BME280;31440;48.584;13.460;2023-06-22T09:07:46;96821.28;;;33.90;57.44
45731;BME280;31440;48.584;13.460;2023-06-22T09:10:50;96818.88;;;34.08;48.04
45731;BME280;31440;48.584;13.460;2023-06-22T09:13:55;96807.44;;;33.03;47.73
45731;BME280;31440;48.584;13.460;2023-06-22T09:16:59;96811.03;;;33.38;46.75
45731;BME280;31440;48.584;13.460;2023-06-22T09:20:04;96798.66;;;32.73;45.17
45731;BME280;31440;48.584;13.460;2023-06-22T09:23:11;96799.75;;;34.58;53.23
45731;BME280;31440;48.584;13.460;2023-06-22T09:26:15;96796.47;;;34.01;45.47
45731;BME280;31440;48.584;13.460;2023-06-22T09:29:20;96791.47;;;34.59;49.64
45731;BME280;31440;48.584;13.460;2023-06-22T09:32:24;96797.63;;;33.79;44.13
45731;BME280;31440;48.584;13.460;2023-06-22T09:35:30;96798.53;;;34.73;45.72
45731;BME280;31440;48.584;13.460;2023-06-22T09:38:35;96797.06;;;35.70;46.71
45731;BME280;31440;48.584;13.460;2023-06-22T09:41:39;96788.56;;;34.67;41.45
45731;BME280;31440;48.584;13.460;2023-06-22T09:44:44;96780.50;;;35.53;39.73
45731;BME280;31440;48.584;13.460;2023-06-22T09:47:48;96786.28;;;34.58;42.67
45731;BME280;31440;48.584;13.460;2023-06-22T09:50:53;96780.19;;;35.88;40.70
45731;BME280;31440;48.584;13.460;2023-06-22T09:53:58;96781.06;;;35.55;48.74
45731;BME280;31440;48.584;13.460;2023-06-22T09:57:03;96766.28;;;36.29;52.68
45731;BME280;31440;48.584;13.460;2023-06-22T10:00:07;96758.59;;;35.88;38.79
45731;BME280;31440;48.584;13.460;2023-06-22T10:03:17;96766.25;;;37.41;48.02
45731;BME280;31440;48.584;13.460;2023-06-22T10:06:22;96761.56;;;36.80;38.56
45731;BME280;31440;48.584;13.460;2023-06-22T10:09:27;96756.88;;;37.44;38.84
45731;BME280;31440;48.584;13.460;2023-06-22T10:12:31;96755.56;;;37.03;34.44
45731;BME280;31440;48.584;13.460;2023-06-22T10:15:36;96756.41;;;37.29;36.03
45731;BME280;31440;48.584;13.460;2023-06-22T10:18:41;96757.06;;;36.43;37.50
45731;BME280;31440;48.584;13.460;2023-06-22T10:21:45;96755.81;;;37.45;39.64
45731;BME280;31440;48.584;13.460;2023-06-22T10:24:50;96742.97;;;37.77;33.48
45731;BME280;31440;48.584;13.460;2023-06-22T10:27:54;96745.19;;;37.68;34.49
45731;BME280;31440;48.584;13.460;2023-06-22T10:30:59;96750.31;;;37.15;34.40
45731;BME280;31440;48.584;13.460;2023-06-22T10:34:03;96743.31;;;37.26;32.91
45731;BME280;31440;48.584;13.460;2023-06-22T10:37:08;96749.78;;;37.98;33.34
45731;BME280;31440;48.584;13.460;2023-06-22T10:40:13;96742.28;;;38.30;32.60
45731;BME280;31440;48.584;13.460;2023-06-22T10:43:18;96729.00;;;39.51;35.10
45731;BME280;31440;48.584;13.460;2023-06-22T10:46:24;96726.03;;;38.71;33.52
45731;BME280;31440;48.584;13.460;2023-06-22T10:49:28;96722.53;;;38.41;35.84
45731;BME280;31440;48.584;13.460;2023-06-22T10:52:33;96727.59;;;38.07;34.66
45731;BME280;31440;48.584;13.460;2023-06-22T10:55:37;96727.16;;;37.37;32.85
45731;BME280;31440;48.584;13.460;2023-06-22T10:58:59;96723.16;;;38.13;33.94
45731;BME280;31440;48.584;13.460;2023-06-22T11:02:04;96721.03;;;37.67;33.19
45731;BME280;31440;48.584;13.460;2023-06-22T11:05:09;96719.03;;;37.74;33.16
45731;BME280;31440;48.584;13.460;2023-06-22T11:08:13;96717.97;;;37.38;33.64
45731;BME280;31440;48.584;13.460;2023-06-22T11:11:18;96717.72;;;37.65;37.31
45731;BME280;31440;48.584;13.460;2023-06-22T11:14:23;96719.28;;;38.50;40.97
45731;BME280;31440;48.584;13.460;2023-06-22T11:17:27;96716.53;;;39.39;34.34
45731;BME280;31440;48.584;13.460;2023-06-22T11:20:32;96714.69;;;38.63;33.24
45731;BME280;31440;48.584;13.460;2023-06-22T11:23:38;96705.00;;;39.72;37.39
45731;BME280;31440;48.584;13.460;2023-06-22T11:26:43;96704.41;;;40.10;31.02
45731;BME280;31440;48.584;13.460;2023-06-22T11:29:48;96707.91;;;39.18;32.43
45731;BME280;31440;48.584;13.460;2023-06-22T11:32:52;96705.13;;;39.77;31.10
45731;BME280;31440;48.584;13.460;2023-06-22T11:35:57;96701.53;;;39.24;29.50
45731;BME280;31440;48.584;13.460;2023-06-22T11:39:01;96692.28;;;40.29;31.25
45731;BME280;31440;48.584;13.460;2023-06-22T11:42:07;96693.44;;;40.05;30.53
45731;BME280;31440;48.584;13.460;2023-06-22T11:45:13;96691.00;;;39.63;30.71
45731;BME280;31440;48.584;13.460;2023-06-22T11:48:17;96683.38;;;40.17;29.49
45731;BME280;31440;48.584;13.460;2023-06-22T11:51:22;96682.56;;;40.16;28.07
45731;BME280;31440;48.584;13.460;2023-06-22T11:54:27;96673.22;;;41.08;28.57
45731;BME280;31440;48.584;13.460;2023-06-22T11:57:35;96675.47;;;40.04;29.33
45731;BME280;31440;48.584;13.460;2023-06-22T12:00:40;96666.34;;;41.22;28.02
45731;BME280;31440;48.584;13.460;2023-06-22T12:03:55;96662.13;;;41.14;28.05
45731;BME280;31440;48.584;13.460;2023-06-22T12:06:59;96657.22;;;42.52;28.03
45731;BME280;31440;48.584;13.460;2023-06-22T12:10:04;96661.22;;;41.69;27.86
45731;BME280;31440;48.584;13.460;2023-06-22T12:13:09;96657.47;;;41.32;26.49
45731;BME280;31440;48.584;13.460;2023-06-22T12:16:13;96649.84;;;40.56;28.07
45731;BME280;31440;48.584;13.460;2023-06-22T12:19:18;96639.78;;;40.74;28.52
45731;BME280;31440;48.584;13.460;2023-06-22T12:22:22;96635.88;;;40.53;27.18
45731;BME280;31440;48.584;13.460;2023-06-22T12:25:27;96639.66;;;41.41;27.33
45731;BME280;31440;48.584;13.460;2023-06-22T12:28:31;96627.78;;;40.41;26.91
45731;BME280;31440;48.584;13.460;2023-06-22T12:31:36;96628.28;;;40.88;27.79
45731;BME280;31440;48.584;13.460;2023-06-22T12:34:43;96620.06;;;41.22;27.21
45731;BME280;31440;48.584;13.460;2023-06-22T12:37:48;96628.19;;;41.60;26.89
45731;BME280;31440;48.584;13.460;2023-06-22T12:40:52;96626.22;;;41.56;27.43
45731;BME280;31440;48.584;13.460;2023-06-22T12:43:57;96612.91;;;41.81;26.94
45731;BME280;31440;48.584;13.460;2023-06-22T12:47:01;96608.72;;;42.27;25.87
45731;BME280;31440;48.584;13.460;2023-06-22T12:50:07;96599.81;;;42.74;24.10
45731;BME280;31440;48.584;13.460;2023-06-22T12:53:11;96599.16;;;42.25;23.85
45731;BME280;31440;48.584;13.460;2023-06-22T12:56:15;96597.88;;;42.38;22.82
45731;BME280;31440;48.584;13.460;2023-06-22T12:59:20;96591.88;;;42.73;23.24
45731;BME280;31440;48.584;13.460;2023-06-22T13:02:24;96593.47;;;42.63;22.28
45731;BME280;31440;48.584;13.460;2023-06-22T13:05:29;96596.25;;;42.74;23.65
45731;BME280;31440;48.584;13.460;2023-06-22T13:08:34;96594.25;;;43.58;25.59
45731;BME280;31440;48.584;13.460;2023-06-22T13:11:59;96587.47;;;43.09;22.25
45731;BME280;31440;48.584;13.460;2023-06-22T13:15:04;96581.72;;;42.63;23.28
45731;BME280;31440;48.584;13.460;2023-06-22T13:18:09;96573.22;;;43.64;22.01
45731;BME280;31440;48.584;13.460;2023-06-22T13:21:14;96575.59;;;41.38;23.29
45731;BME280;31440;48.584;13.460;2023-06-22T13:24:19;96583.38;;;41.51;23.97
45731;BME280;31440;48.584;13.460;2023-06-22T13:27:23;96570.97;;;42.14;23.46
45731;BME280;31440;48.584;13.460;2023-06-22T13:30:28;96573.53;;;42.26;23.74
45731;BME280;31440;48.584;13.460;2023-06-22T13:33:34;96560.44;;;41.96;25.92
45731;BME280;31440;48.584;13.460;2023-06-22T13:36:38;96558.34;;;43.24;24.62
45731;BME280;31440;48.584;13.460;2023-06-22T13:39:43;96555.63;;;43.35;24.07
45731;BME280;31440;48.584;13.460;2023-06-22T13:42:47;96554.13;;;42.22;24.12
45731;BME280;31440;48.584;13.460;2023-06-22T13:45:52;96551.09;;;40.78;24.89
45731;BME280;31440;48.584;13.460;2023-06-22T13:48:56;96548.09;;;42.52;24.69
45731;BME280;31440;48.584;13.460;2023-06-22T13:52:01;96537.06;;;42.37;23.64
45731;BME280;31440;48.584;13.460;2023-06-22T13:55:08;96536.25;;;42.79;24.51
45731;BME280;31440;48.584;13.460;2023-06-22T13:58:13;96528.66;;;43.48;24.40
45731;BME280;31440;48.584;13.460;2023-06-22T14:01:18;96534.44;;;43.72;24.23
45731;BME280;31440;48.584;13.460;2023-06-22T14:04:23;96530.09;;;44.07;23.20
45731;BME280;31440;48.584;13.460;2023-06-22T14:07:27;96526.25;;;43.82;22.70
45731;BME280;31440;48.584;13.460;2023-06-22T14:10:32;96529.22;;;43.60;24.08
45731;BME280;31440;48.584;13.460;2023-06-22T14:13:36;96532.03;;;43.91;24.12
45731;BME280;31440;48.584;13.460;2023-06-22T14:16:41;96519.94;;;42.94;24.85
45731;BME280;31440;48.584;13.460;2023-06-22T14:19:45;96519.28;;;43.24;24.55
45731;BME280;31440;48.584;13.460;2023-06-22T14:22:50;96511.13;;;41.71;25.72
45731;BME280;31440;48.584;13.460;2023-06-22T14:25:54;96514.09;;;40.38;26.83
45731;BME280;31440;48.584;13.460;2023-06-22T14:28:59;96509.34;;;41.33;26.81
45731;BME280;31440;48.584;13.460;2023-06-22T14:32:03;96498.25;;;41.61;27.34
45731;BME280;31440;48.584;13.460;2023-06-22T14:35:10;96498.78;;;42.22;27.53
45731;BME280;31440;48.584;13.460;2023-06-22T14:38:14;96492.44;;;43.01;25.96
45731;BME280;31440;48.584;13.460;2023-06-22T14:41:19;96490.72;;;42.84;25.29
45731;BME280;31440;48.584;13.460;2023-06-22T14:44:24;96491.44;;;43.32;24.92
45731;BME280;31440;48.584;13.460;2023-06-22T14:47:28;96484.94;;;43.53;26.31
45731;BME280;31440;48.584;13.460;2023-06-22T14:50:33;96482.25;;;44.24;24.96
45731;BME280;31440;48.584;13.460;2023-06-22T14:53:37;96481.13;;;43.59;25.81
45731;BME280;31440;48.584;13.460;2023-06-22T14:56:42;96488.31;;;42.98;26.73
45731;BME280;31440;48.584;13.460;2023-06-22T14:59:47;96480.97;;;43.09;25.51
45731;BME280;31440;48.584;13.460;2023-06-22T15:02:52;96476.28;;;42.94;26.93
45731;BME280;31440;48.584;13.460;2023-06-22T15:05:58;96469.34;;;42.66;27.90
45731;BME280;31440;48.584;13.460;2023-06-22T15:09:02;96463.34;;;42.22;27.89
45731;BME280;31440;48.584;13.460;2023-06-22T15:12:07;96454.28;;;42.16;27.83
45731;BME280;31440;48.584;13.460;2023-06-22T15:15:15;96455.31;;;41.46;28.00
45731;BME280;31440;48.584;13.460;2023-06-22T15:18:20;96464.34;;;41.25;28.54
45731;BME280;31440;48.584;13.460;2023-06-22T15:21:24;96458.84;;;42.06;28.82
45731;BME280;31440;48.584;13.460;2023-06-22T15:24:29;96461.50;;;40.93;29.94
45731;BME280;31440;48.584;13.460;2023-06-22T15:27:34;96466.78;;;40.78;29.35
45731;BME280;31440;48.584;13.460;2023-06-22T15:30:38;96452.53;;;41.14;29.12
45731;BME280;31440;48.584;13.460;2023-06-22T15:33:43;96458.25;;;40.69;29.62
45731;BME280;31440;48.584;13.460;2023-06-22T15:36:47;96448.56;;;40.18;29.75
45731;BME280;31440;48.584;13.460;2023-06-22T15:39:54;96443.63;;;40.15;30.71
45731;BME280;31440;48.584;13.460;2023-06-22T15:43:00;96435.22;;;40.16;29.70
45731;BME280;31440;48.584;13.460;2023-06-22T15:46:05;96427.63;;;40.02;31.05
45731;BME280;31440;48.584;13.460;2023-06-22T15:49:09;96429.19;;;39.19;31.93
45731;BME280;31440;48.584;13.460;2023-06-22T15:52:14;96418.00;;;38.87;32.12
45731;BME280;31440;48.584;13.460;2023-06-22T15:55:23;96410.09;;;38.45;33.04
45731;BME280;31440;48.584;13.460;2023-06-22T15:58:27;96403.28;;;38.19;35.26
45731;BME280;31440;48.584;13.460;2023-06-22T16:01:32;96399.19;;;38.69;34.79
45731;BME280;31440;48.584;13.460;2023-06-22T16:04:36;96392.41;;;38.95;34.19